createdAt,value
2023-05-19T00:01:20.449Z,1.40
2023-05-19T00:03:55.203Z,1.40
2023-05-19T00:06:27.358Z,1.27
2023-05-19T00:09:06.113Z,1.48
2023-05-19T00:11:36.427Z,1.45
2023-05-19T00:14:06.197Z,1.30
2023-05-19T00:16:34.132Z,1.50
2023-05-19T00:19:03.199Z,1.40
2023-05-19T00:21:31.494Z,1.48
2023-05-19T00:23:58.741Z,1.20
2023-05-19T00:26:27.278Z,1.35
2023-05-19T00:28:54.690Z,1.80
2023-05-19T00:31:21.849Z,1.70
2023-05-19T00:33:48.805Z,1.52
2023-05-19T00:36:15.880Z,1.48
2023-05-19T00:38:42.847Z,1.58
2023-05-19T00:41:09.775Z,1.70
2023-05-19T00:43:36.850Z,1.70
2023-05-19T00:46:03.850Z,1.40
2023-05-19T00:48:31.046Z,1.67
2023-05-19T00:51:04.273Z,1.50
2023-05-19T00:53:33.598Z,1.40
2023-05-19T00:56:02.035Z,1.70
2023-05-19T00:58:30.678Z,1.73
2023-05-19T01:01:04.478Z,1.45
2023-05-19T01:03:35.146Z,1.80
2023-05-19T01:06:07.282Z,1.80
2023-05-19T01:08:36.583Z,1.50
2023-05-19T01:11:04.651Z,1.50
2023-05-19T01:13:32.346Z,1.60
2023-05-19T01:16:06.889Z,1.60
2023-05-19T01:18:56.393Z,1.70
2023-05-19T01:21:51.298Z,1.90
2023-05-19T01:24:55.947Z,2.22
2023-05-19T01:27:35.039Z,2.40
2023-05-19T01:30:10.799Z,1.98
2023-05-19T01:32:41.441Z,2.00
2023-05-19T01:35:10.390Z,1.85
2023-05-19T01:37:38.838Z,1.73
2023-05-19T01:40:08.144Z,1.40
2023-05-19T01:42:38.036Z,1.30
2023-05-19T01:45:06.824Z,1.30
2023-05-19T01:47:38.402Z,1.42
2023-05-19T01:50:06.147Z,1.30
2023-05-19T01:52:33.527Z,1.40
2023-05-19T01:55:00.632Z,1.27
2023-05-19T01:57:27.521Z,1.27
2023-05-19T02:00:08.016Z,1.23
2023-05-19T02:02:56.298Z,1.23
2023-05-19T02:05:33.779Z,1.20
2023-05-19T02:08:14.513Z,1.13
2023-05-19T02:10:45.979Z,0.98
2023-05-19T02:13:16.780Z,1.15
2023-05-19T02:15:45.524Z,1.80
2023-05-19T02:18:13.006Z,1.30
2023-05-19T02:20:40.808Z,1.33
2023-05-19T02:23:07.863Z,1.20
2023-05-19T02:25:34.887Z,1.55
2023-05-19T02:28:01.930Z,1.30
2023-05-19T02:30:28.944Z,1.23
2023-05-19T02:32:56.005Z,1.10
2023-05-19T02:35:23.017Z,1.20
2023-05-19T02:37:49.985Z,1.15
2023-05-19T02:40:18.125Z,1.35
2023-05-19T02:42:45.062Z,1.30
2023-05-19T02:45:12.160Z,1.23
2023-05-19T02:47:39.221Z,1.30
2023-05-19T02:50:06.805Z,1.13
2023-05-19T02:52:33.936Z,1.10
2023-05-19T02:55:00.904Z,1.10
2023-05-19T02:57:31.788Z,1.08
2023-05-19T02:59:58.879Z,1.10
2023-05-19T03:02:25.879Z,1.30
2023-05-19T03:04:53.284Z,1.08
2023-05-19T03:07:25.265Z,1.38
2023-05-19T03:09:53.126Z,1.20
2023-05-19T03:12:20.099Z,1.52
2023-05-19T03:14:47.698Z,1.50
2023-05-19T03:17:14.811Z,1.20
2023-05-19T03:19:42.231Z,1.30
2023-05-19T03:22:09.180Z,1.38
2023-05-19T03:24:36.448Z,1.02
2023-05-19T03:27:05.493Z,1.55
2023-05-19T03:29:32.430Z,1.30
2023-05-19T03:32:00.071Z,1.50
2023-05-19T03:34:27.131Z,1.50
2023-05-19T03:36:54.157Z,2.00
2023-05-19T03:39:21.106Z,1.83
2023-05-19T03:41:48.051Z,1.30
2023-05-19T03:44:14.992Z,1.42
2023-05-19T03:46:42.046Z,1.10
2023-05-19T03:49:09.065Z,1.15
2023-05-19T03:51:36.721Z,1.30
2023-05-19T03:54:04.656Z,1.30
2023-05-19T03:56:32.941Z,1.20
2023-05-19T03:59:00.372Z,1.20
2023-05-19T04:01:27.448Z,1.08
2023-05-19T04:03:54.484Z,1.40
2023-05-19T04:06:22.137Z,1.08
2023-05-19T04:08:49.222Z,1.05
2023-05-19T04:11:16.350Z,1.00
2023-05-19T04:13:45.025Z,1.20
2023-05-19T04:16:12.234Z,1.20
2023-05-19T04:18:39.319Z,0.88
2023-05-19T04:21:08.678Z,0.98
2023-05-19T04:23:35.654Z,1.00
2023-05-19T04:26:03.828Z,0.90
2023-05-19T04:28:30.818Z,1.23
2023-05-19T04:30:58.889Z,1.02
2023-05-19T04:33:25.933Z,1.15
2023-05-19T04:35:52.848Z,1.00
2023-05-19T04:38:20.177Z,0.70
2023-05-19T04:40:50.352Z,0.93
2023-05-19T04:43:18.188Z,0.90
2023-05-19T04:45:46.683Z,0.85
2023-05-19T04:48:14.087Z,0.77
2023-05-19T04:50:42.341Z,0.90
2023-05-19T04:53:10.169Z,0.75
2023-05-19T04:55:38.787Z,0.80
2023-05-19T04:58:06.464Z,0.70
2023-05-19T05:00:35.881Z,0.95
2023-05-19T05:03:05.239Z,0.80
2023-05-19T05:05:32.623Z,0.90
2023-05-19T05:07:59.659Z,0.80
2023-05-19T05:10:26.702Z,0.90
2023-05-19T05:12:53.930Z,0.90
2023-05-19T05:15:21.751Z,0.80
2023-05-19T05:17:48.931Z,0.77
2023-05-19T05:20:16.517Z,0.70
2023-05-19T05:22:43.791Z,0.90
2023-05-19T05:25:11.567Z,0.90
2023-05-19T05:27:38.586Z,0.90
2023-05-19T05:30:06.159Z,0.90
2023-05-19T05:32:33.191Z,0.98
2023-05-19T05:35:00.285Z,0.98
2023-05-19T05:37:27.246Z,0.98
2023-05-19T05:39:54.193Z,0.80
2023-05-19T05:42:21.151Z,1.08
2023-05-19T05:44:48.119Z,0.98
2023-05-19T05:47:15.700Z,0.80
2023-05-19T05:49:44.050Z,1.20
2023-05-19T05:52:12.666Z,1.00
2023-05-19T05:54:39.886Z,0.70
2023-05-19T05:57:07.284Z,0.90
2023-05-19T05:59:34.320Z,0.90
2023-05-19T06:02:01.608Z,0.70
2023-05-19T06:04:28.592Z,1.40
2023-05-19T06:07:01.214Z,0.80
2023-05-19T06:09:29.858Z,0.70
2023-05-19T06:11:59.582Z,1.00
2023-05-19T06:14:26.600Z,0.80
2023-05-19T06:16:53.738Z,0.80
2023-05-19T06:19:21.714Z,0.85
2023-05-19T06:21:48.785Z,1.20
2023-05-19T06:24:15.728Z,1.00
2023-05-19T06:26:42.644Z,1.00
2023-05-19T06:29:09.676Z,0.82
2023-05-19T06:31:36.644Z,1.05
2023-05-19T06:34:03.554Z,0.85
2023-05-19T06:36:30.619Z,0.90
2023-05-19T06:38:59.248Z,0.85
2023-05-19T06:41:27.578Z,0.85
2023-05-19T06:43:54.562Z,0.90
2023-05-19T06:46:21.466Z,0.80
2023-05-19T06:48:48.411Z,0.60
2023-05-19T06:51:16.794Z,0.63
2023-05-19T06:53:43.722Z,0.60
2023-05-19T06:56:10.660Z,0.50
2023-05-19T06:58:39.582Z,0.70
2023-05-19T07:01:06.821Z,0.88
2023-05-19T07:03:33.831Z,0.73
2023-05-19T07:06:01.753Z,0.73
2023-05-19T07:08:28.815Z,0.40
2023-05-19T07:10:56.205Z,0.60
2023-05-19T07:13:24.414Z,0.70
2023-05-19T07:15:55.919Z,0.55
2023-05-19T07:18:23.132Z,0.68
2023-05-19T07:20:51.835Z,0.60
2023-05-19T07:23:18.768Z,0.50
2023-05-19T07:25:45.763Z,0.70
2023-05-19T07:28:12.678Z,0.47
2023-05-19T07:30:39.732Z,0.60
2023-05-19T07:33:07.030Z,0.52
2023-05-19T07:35:34.156Z,0.60
2023-05-19T07:38:01.119Z,0.60
2023-05-19T07:40:28.142Z,0.80
2023-05-19T07:42:55.054Z,0.60
2023-05-19T07:45:22.230Z,0.80
2023-05-19T07:47:49.195Z,0.55
2023-05-19T07:50:16.426Z,0.70
2023-05-19T07:52:43.383Z,0.70
2023-05-19T07:55:10.369Z,0.52
2023-05-19T07:57:37.392Z,0.90
2023-05-19T08:00:07.944Z,0.80
2023-05-19T08:02:35.955Z,0.60
2023-05-19T08:05:03.032Z,0.70
2023-05-19T08:07:29.961Z,0.50
2023-05-19T08:09:57.382Z,0.50
2023-05-19T08:12:24.332Z,0.77
2023-05-19T08:14:51.437Z,0.43
2023-05-19T08:17:18.497Z,0.50
2023-05-19T08:19:45.514Z,0.70
2023-05-19T08:22:12.486Z,0.60
2023-05-19T08:24:40.291Z,0.65
2023-05-19T08:27:07.351Z,0.43
2023-05-19T08:29:34.351Z,0.60
2023-05-19T08:32:02.589Z,0.60
2023-05-19T08:34:29.553Z,0.60
2023-05-19T08:36:57.910Z,0.70
2023-05-19T08:39:27.205Z,0.63
2023-05-19T08:41:54.888Z,0.63
2023-05-19T08:44:22.682Z,0.70
2023-05-19T08:46:53.248Z,0.50
2023-05-19T08:49:29.664Z,0.60
2023-05-19T08:52:19.668Z,0.75
2023-05-19T08:55:01.253Z,0.60
2023-05-19T08:57:29.337Z,0.70
2023-05-19T08:59:57.060Z,0.77
2023-05-19T09:02:24.607Z,1.10
2023-05-19T09:04:52.859Z,1.50
2023-05-19T09:07:21.740Z,1.10
2023-05-19T09:09:49.367Z,0.80
2023-05-19T09:12:16.536Z,0.63
2023-05-19T09:14:44.066Z,0.95
2023-05-19T09:17:11.102Z,0.70
2023-05-19T09:19:44.511Z,0.80
2023-05-19T09:22:11.961Z,1.00
2023-05-19T09:24:40.568Z,0.85
2023-05-19T09:27:07.740Z,0.75
2023-05-19T09:29:34.726Z,0.88
2023-05-19T09:32:04.290Z,0.85
2023-05-19T09:34:31.498Z,0.70
2023-05-19T09:36:59.995Z,0.73
2023-05-19T09:39:28.809Z,0.68
2023-05-19T09:41:58.813Z,0.82
2023-05-19T09:44:29.622Z,0.70
2023-05-19T09:49:26.181Z,0.82
2023-05-19T09:52:03.328Z,0.70
2023-05-19T09:54:32.502Z,0.70
2023-05-19T09:57:01.321Z,0.60
2023-05-19T09:59:32.283Z,0.57
2023-05-19T10:02:01.126Z,0.70
2023-05-19T10:04:30.240Z,0.88
2023-05-19T10:07:01.258Z,0.80
2023-05-19T10:09:29.831Z,0.77
2023-05-19T10:11:58.342Z,0.75
2023-05-19T10:14:27.586Z,0.80
2023-05-19T10:16:56.883Z,0.60
2023-05-19T10:19:26.187Z,0.60
2023-05-19T10:21:53.917Z,0.73
2023-05-19T10:24:21.779Z,0.80
2023-05-19T10:26:54.978Z,0.70
2023-05-19T10:29:27.455Z,0.77
2023-05-19T10:31:57.296Z,0.70
2023-05-19T10:34:37.579Z,0.90
2023-05-19T10:37:13.882Z,0.75
2023-05-19T10:39:43.428Z,0.80
2023-05-19T10:42:23.584Z,0.77
2023-05-19T10:45:12.670Z,0.70
2023-05-19T10:47:41.840Z,0.77
2023-05-19T10:50:10.140Z,0.80
2023-05-19T10:52:40.716Z,0.68
2023-05-19T10:55:08.908Z,0.90
2023-05-19T10:57:36.868Z,0.90
2023-05-19T11:00:25.730Z,0.80
2023-05-19T11:02:56.477Z,0.80
2023-05-19T11:05:29.728Z,0.70
2023-05-19T11:08:05.167Z,0.80
2023-05-19T11:10:32.628Z,0.63
2023-05-19T11:12:59.740Z,0.90
2023-05-19T11:15:28.143Z,0.90
2023-05-19T11:17:55.694Z,0.80
2023-05-19T11:20:23.865Z,0.82
2023-05-19T11:23:07.034Z,0.70
2023-05-19T11:25:51.660Z,0.90
2023-05-19T11:28:22.884Z,0.80
2023-05-19T11:33:19.592Z,0.80
2023-05-19T11:35:49.444Z,0.63
2023-05-19T11:38:18.675Z,0.93
2023-05-19T11:40:46.057Z,0.98
2023-05-19T11:43:13.022Z,0.80
2023-05-19T11:45:40.017Z,0.90
2023-05-19T11:48:11.037Z,0.82
2023-05-19T11:50:38.512Z,1.02
2023-05-19T11:53:05.473Z,0.82
2023-05-19T11:55:33.064Z,0.80
2023-05-19T11:58:05.766Z,0.63
2023-05-19T12:00:39.466Z,0.88
2023-05-19T12:03:07.425Z,0.70
2023-05-19T12:05:42.040Z,0.80
2023-05-19T12:08:11.210Z,0.65
2023-05-19T12:10:39.375Z,0.68
2023-05-19T12:13:09.586Z,0.90
2023-05-19T12:15:37.587Z,0.70
2023-05-19T12:18:04.700Z,0.80
2023-05-19T12:20:32.743Z,0.70
2023-05-19T12:23:01.281Z,0.70
2023-05-19T12:25:29.915Z,0.90
2023-05-19T12:28:03.089Z,1.00
2023-05-19T12:30:32.329Z,0.90
2023-05-19T12:33:00.088Z,0.80
2023-05-19T12:35:33.608Z,0.60
2023-05-19T12:38:07.193Z,0.70
2023-05-19T12:40:41.094Z,0.70
2023-05-19T12:43:09.731Z,0.82
2023-05-19T12:45:37.403Z,0.90
2023-05-19T12:48:11.990Z,0.70
2023-05-19T12:50:39.232Z,0.90
2023-05-19T12:53:09.245Z,0.80
2023-05-19T12:55:44.610Z,1.02
2023-05-19T12:58:12.939Z,1.00
2023-05-19T13:00:45.240Z,0.80
2023-05-19T13:03:30.488Z,1.05
2023-05-19T13:05:59.862Z,0.90
2023-05-19T13:08:27.933Z,0.80
2023-05-19T13:10:56.185Z,0.70
2023-05-19T13:13:23.142Z,0.80
2023-05-19T13:15:50.127Z,0.90
2023-05-19T13:18:17.367Z,0.80
2023-05-19T13:20:46.567Z,1.00
2023-05-19T13:23:14.510Z,0.80
2023-05-19T13:25:41.706Z,0.70
2023-05-19T13:28:09.515Z,0.70
2023-05-19T13:30:39.553Z,0.60
2023-05-19T13:33:06.855Z,0.77
2023-05-19T13:35:37.560Z,1.05
2023-05-19T13:40:35.699Z,1.23
2023-05-19T13:43:03.691Z,1.02
2023-05-19T13:45:30.833Z,0.90
2023-05-19T13:47:57.856Z,0.85
2023-05-19T13:50:24.861Z,0.90
2023-05-19T13:52:54.055Z,0.77
2023-05-19T13:55:33.588Z,0.85
2023-05-19T13:58:00.670Z,0.77
2023-05-19T14:00:27.834Z,0.75
2023-05-19T14:02:55.264Z,0.90
2023-05-19T14:05:24.753Z,0.70
2023-05-19T14:07:53.056Z,1.00
2023-05-19T14:10:33.630Z,0.70
2023-05-19T14:15:34.600Z,0.80
2023-05-19T14:18:02.026Z,0.70
2023-05-19T14:20:29.994Z,0.70
2023-05-19T14:22:57.036Z,0.85
2023-05-19T14:25:25.152Z,0.95
2023-05-19T14:27:52.369Z,0.80
2023-05-19T14:30:19.275Z,0.80
2023-05-19T14:32:46.406Z,0.90
2023-05-19T14:35:14.606Z,0.90
2023-05-19T14:37:41.502Z,1.00
2023-05-19T14:40:09.026Z,1.13
2023-05-19T14:42:36.100Z,1.10
2023-05-19T14:45:03.051Z,0.80
2023-05-19T14:47:30.184Z,0.68
2023-05-19T14:49:57.164Z,1.02
2023-05-19T14:52:24.084Z,0.80
2023-05-19T14:54:51.037Z,0.93
2023-05-19T14:57:17.969Z,0.80
2023-05-19T14:59:44.935Z,0.60
2023-05-19T15:02:12.788Z,0.80
2023-05-19T15:04:39.726Z,0.73
2023-05-19T15:07:10.158Z,0.60
2023-05-19T15:12:04.975Z,0.95
2023-05-19T15:14:31.914Z,0.75
2023-05-19T15:16:59.344Z,0.70
2023-05-19T15:19:26.718Z,0.68
2023-05-19T15:21:54.162Z,0.80
2023-05-19T15:24:21.349Z,0.82
2023-05-19T15:26:48.390Z,0.95
2023-05-19T15:29:15.336Z,0.68
2023-05-19T15:31:42.363Z,0.98
2023-05-19T15:34:09.389Z,0.63
2023-05-19T15:36:36.353Z,0.80
2023-05-19T15:39:04.013Z,0.88
2023-05-19T15:41:31.055Z,0.60
2023-05-19T15:44:00.300Z,0.70
2023-05-19T15:46:27.939Z,0.80
2023-05-19T15:48:55.706Z,0.82
2023-05-19T15:51:26.044Z,0.65
2023-05-19T15:53:53.106Z,0.80
2023-05-19T15:56:20.114Z,0.85
2023-05-19T15:58:47.415Z,0.70
2023-05-19T16:01:15.710Z,0.70
2023-05-19T16:03:43.838Z,0.68
2023-05-19T16:06:11.098Z,0.60
2023-05-19T16:08:38.282Z,0.68
2023-05-19T16:11:05.507Z,0.60
2023-05-19T16:13:33.718Z,0.57
2023-05-19T16:16:00.988Z,0.52
2023-05-19T16:18:29.291Z,0.80
2023-05-19T16:20:56.605Z,0.85
2023-05-19T16:23:24.897Z,0.60
2023-05-19T16:25:52.398Z,0.70
2023-05-19T16:28:19.532Z,0.70
2023-05-19T16:30:48.074Z,0.88
2023-05-19T16:33:15.028Z,0.77
2023-05-19T16:35:42.218Z,0.60
2023-05-19T16:38:09.266Z,0.75
2023-05-19T16:40:36.426Z,0.90
2023-05-19T16:43:03.507Z,0.95
2023-05-19T16:45:30.587Z,1.00
2023-05-19T16:47:57.611Z,0.80
2023-05-19T16:50:24.666Z,0.95
2023-05-19T16:52:51.656Z,0.93
2023-05-19T16:55:20.152Z,1.05
2023-05-19T16:57:47.341Z,1.33
2023-05-19T17:00:15.218Z,1.10
2023-05-19T17:02:42.857Z,1.08
2023-05-19T17:05:10.010Z,1.15
2023-05-19T17:07:37.032Z,1.17
2023-05-19T17:10:04.266Z,1.10
2023-05-19T17:12:31.253Z,1.00
2023-05-19T17:14:58.245Z,1.00
2023-05-19T17:17:25.201Z,1.40
2023-05-19T17:19:52.246Z,1.27
2023-05-19T17:22:19.455Z,1.08
2023-05-19T17:24:46.588Z,1.10
2023-05-19T17:27:13.586Z,1.20
2023-05-19T17:29:40.682Z,1.10
2023-05-19T17:32:07.874Z,1.20
2023-05-19T17:34:35.035Z,1.20
2023-05-19T17:37:02.116Z,1.20
2023-05-19T17:39:31.862Z,1.42
2023-05-19T17:41:59.025Z,1.05
2023-05-19T17:44:26.386Z,1.40
2023-05-19T17:46:53.426Z,1.23
2023-05-19T17:49:21.096Z,1.20
2023-05-19T17:51:48.300Z,1.13
2023-05-19T17:54:15.613Z,1.20
2023-05-19T17:56:44.303Z,1.20
2023-05-19T17:59:11.574Z,1.10
2023-05-19T18:01:38.928Z,1.60
2023-05-19T18:04:07.044Z,1.20
2023-05-19T18:06:37.445Z,1.00
2023-05-19T18:09:08.502Z,1.17
2023-05-19T18:11:36.186Z,1.33
2023-05-19T18:14:03.366Z,1.30
2023-05-19T18:16:30.432Z,1.20
2023-05-19T18:18:57.466Z,1.30
2023-05-19T18:21:25.180Z,1.33
2023-05-19T18:23:52.306Z,1.40
2023-05-19T18:26:26.336Z,1.40
2023-05-19T18:29:18.702Z,1.30
2023-05-19T18:31:51.619Z,1.17
2023-05-19T18:34:18.741Z,1.10
2023-05-19T18:36:45.937Z,1.20
2023-05-19T18:39:12.967Z,1.50
2023-05-19T18:41:43.545Z,1.10
2023-05-19T18:44:16.748Z,1.20
2023-05-19T18:46:58.711Z,1.10
2023-05-19T18:49:32.270Z,1.08
2023-05-19T18:51:59.278Z,1.25
2023-05-19T18:54:26.309Z,1.15
2023-05-19T18:56:54.029Z,0.90
2023-05-19T18:59:21.134Z,1.20
2023-05-19T19:05:07.400Z,1.50
2023-05-19T19:07:34.412Z,1.02
2023-05-19T19:10:01.419Z,1.25
2023-05-19T19:12:28.425Z,1.20
2023-05-19T19:14:55.757Z,0.90
2023-05-19T19:17:22.866Z,1.20
2023-05-19T19:20:08.081Z,1.30
2023-05-19T19:25:40.470Z,1.30
2023-05-19T19:28:07.610Z,1.38
2023-05-19T19:30:34.827Z,1.00
2023-05-19T19:33:03.069Z,1.40
2023-05-19T19:35:31.272Z,1.13
2023-05-19T19:37:58.782Z,1.38
2023-05-19T19:40:25.851Z,1.20
2023-05-19T19:42:52.849Z,0.90
2023-05-19T19:45:20.986Z,1.40
2023-05-19T19:47:48.086Z,1.10
2023-05-19T19:50:16.165Z,1.42
2023-05-19T19:52:43.207Z,1.50
2023-05-19T19:55:10.362Z,1.10
2023-05-19T19:57:37.594Z,1.20
2023-05-19T20:00:08.887Z,1.80
2023-05-19T20:02:45.517Z,1.40
2023-05-19T20:05:22.696Z,1.45
2023-05-19T20:07:49.703Z,1.48
2023-05-19T20:10:16.749Z,1.35
2023-05-19T20:12:43.982Z,1.15
2023-05-19T20:15:11.119Z,1.30
2023-05-19T20:17:38.100Z,1.17
2023-05-19T20:20:10.542Z,1.40
2023-05-19T20:22:38.413Z,1.10
2023-05-19T20:25:05.916Z,1.35
2023-05-19T20:27:32.901Z,1.08
2023-05-19T20:30:01.321Z,1.13
2023-05-19T20:32:28.263Z,1.10
2023-05-19T20:34:55.226Z,0.98
2023-05-19T20:37:22.478Z,1.30
2023-05-19T20:39:50.892Z,1.30
2023-05-19T20:42:17.919Z,1.35
2023-05-19T20:44:44.872Z,1.30
2023-05-19T20:47:11.843Z,1.20
2023-05-19T20:49:38.838Z,1.20
2023-05-19T20:52:05.974Z,1.23
2023-05-19T20:54:32.926Z,1.30
2023-05-19T20:57:00.031Z,1.63
2023-05-19T20:59:26.986Z,1.30
2023-05-19T21:01:53.981Z,1.50
2023-05-19T21:04:21.611Z,1.52
2023-05-19T21:06:48.685Z,1.58
2023-05-19T21:09:16.038Z,1.60
2023-05-19T21:11:43.016Z,1.60
2023-05-19T21:14:09.947Z,1.80
2023-05-19T21:16:38.926Z,1.77
2023-05-19T21:19:06.913Z,1.50
2023-05-19T21:21:34.165Z,1.40
2023-05-19T21:24:01.114Z,1.35
2023-05-19T21:26:28.106Z,1.42
2023-05-19T21:28:55.098Z,1.30
2023-05-19T21:31:22.095Z,1.58
2023-05-19T21:33:49.113Z,1.20
2023-05-19T21:36:16.756Z,1.63
2023-05-19T21:38:43.731Z,1.60
2023-05-19T21:41:10.842Z,1.50
2023-05-19T21:43:37.867Z,1.23
2023-05-19T21:46:04.843Z,1.40
2023-05-19T21:48:31.861Z,1.15
2023-05-19T21:50:58.874Z,1.73
2023-05-19T21:53:25.892Z,1.55
2023-05-19T21:55:52.952Z,1.73
2023-05-19T21:58:20.056Z,1.70
2023-05-19T22:00:50.868Z,1.48
2023-05-19T22:03:18.062Z,1.40
2023-05-19T22:05:52.779Z,1.70
2023-05-19T22:08:21.026Z,1.50
2023-05-19T22:10:51.862Z,1.67
2023-05-19T22:13:19.848Z,1.63
2023-05-19T22:15:46.884Z,1.88
2023-05-19T22:18:13.805Z,1.45
2023-05-19T22:20:40.816Z,2.00
2023-05-19T22:23:07.733Z,1.70
2023-05-19T22:25:34.810Z,1.92
2023-05-19T22:28:01.834Z,1.83
2023-05-19T22:30:28.944Z,1.83
2023-05-19T22:32:55.939Z,1.88
2023-05-19T22:35:23.010Z,1.92
2023-05-19T22:37:50.012Z,1.90
2023-05-19T22:40:17.907Z,2.00
2023-05-19T22:42:44.877Z,2.00
2023-05-19T22:45:12.099Z,2.22
2023-05-19T22:47:39.092Z,1.92
2023-05-19T22:50:09.938Z,2.03
2023-05-19T22:52:37.560Z,2.42
2023-05-19T22:55:05.003Z,2.15
2023-05-19T22:57:32.014Z,2.13
2023-05-19T22:59:58.995Z,1.88
2023-05-19T23:02:27.309Z,2.00
2023-05-19T23:04:54.347Z,2.15
2023-05-19T23:07:21.492Z,2.05
2023-05-19T23:09:48.646Z,1.90
2023-05-19T23:12:15.733Z,1.80
2023-05-19T23:14:42.736Z,1.90
2023-05-19T23:17:09.748Z,1.98
2023-05-19T23:19:37.067Z,2.15
2023-05-19T23:22:04.077Z,2.08
2023-05-19T23:24:31.274Z,2.40
2023-05-19T23:26:58.354Z,2.38
2023-05-19T23:29:25.400Z,2.15
2023-05-19T23:31:52.324Z,1.77
2023-05-19T23:34:20.694Z,2.15
2023-05-19T23:36:47.631Z,1.67
2023-05-19T23:39:15.006Z,2.10
2023-05-19T23:41:41.887Z,2.10
2023-05-19T23:44:09.240Z,1.90
2023-05-19T23:46:36.193Z,1.92
2023-05-19T23:49:03.308Z,2.03
2023-05-19T23:51:30.283Z,2.33
2023-05-19T23:53:57.230Z,1.83
2023-05-19T23:56:24.138Z,2.60
2023-05-19T23:58:51.996Z,2.38
